sensor_id;sensor_type;location;lat;lon;timestamp;pressure;altitude;pressure_sealevel;temperature;humidity
19676;BME280;39539;52.202;9.876;2024-01-30T00:01:39;101977.41;;;5.91;100.00
19676;BME280;39539;52.202;9.876;2024-01-30T00:04:04;101972.72;;;5.84;100.00
19676;BME280;39539;52.202;9.876;2024-01-30T00:06:29;101974.50;;;5.94;100.00
19676;BME280;39539;52.202;9.876;2024-01-30T00:08:55;101962.84;;;5.87;100.00
19676;BME280;39539;52.202;9.876;2024-01-30T00:11:20;101960.50;;;5.83;100.00
19676;BME280;39539;52.202;9.876;2024-01-30T00:13:46;101956.47;;;5.89;100.00
19676;BME280;39539;52.202;9.876;2024-01-30T00:16:21;101963.16;;;5.74;100.00
19676;BME280;39539;52.202;9.876;2024-01-30T00:18:47;101953.09;;;5.50;100.00
19676;BME280;39539;52.202;9.876;2024-01-30T00:21:12;101957.66;;;5.48;100.00
19676;BME280;39539;52.202;9.876;2024-01-30T00:23:38;101946.44;;;5.26;100.00
19676;BME280;39539;52.202;9.876;2024-01-30T00:26:03;101939.81;;;4.93;100.00
19676;BME280;39539;52.202;9.876;2024-01-30T00:28:30;101945.50;;;4.79;100.00
19676;BME280;39539;52.202;9.876;2024-01-30T00:30:55;101925.84;;;4.33;100.00
19676;BME280;39539;52.202;9.876;2024-01-30T00:33:20;101944.81;;;4.26;100.00
19676;BME280;39539;52.202;9.876;2024-01-30T00:35:46;101941.72;;;4.12;100.00
19676;BME280;39539;52.202;9.876;2024-01-30T00:38:12;101937.53;;;3.99;100.00
19676;BME280;39539;52.202;9.876;2024-01-30T00:40:37;101954.69;;;4.03;100.00
19676;BME280;39539;52.202;9.876;2024-01-30T00:43:02;101948.56;;;3.93;100.00
19676;BME280;39539;52.202;9.876;2024-01-30T00:45:28;101947.78;;;4.02;100.00
19676;BME280;39539;52.202;9.876;2024-01-30T00:47:53;101964.47;;;4.22;100.00
19676;BME280;39539;52.202;9.876;2024-01-30T00:50:18;101953.34;;;4.19;100.00
19676;BME280;39539;52.202;9.876;2024-01-30T00:52:44;101951.16;;;4.14;100.00
19676;BME280;39539;52.202;9.876;2024-01-30T00:55:10;101959.47;;;4.19;100.00
19676;BME280;39539;52.202;9.876;2024-01-30T00:57:36;101965.59;;;4.30;100.00
19676;BME280;39539;52.202;9.876;2024-01-30T01:00:02;101975.91;;;4.42;100.00
19676;BME280;39539;52.202;9.876;2024-01-30T01:02:28;101968.00;;;4.42;100.00
19676;BME280;39539;52.202;9.876;2024-01-30T01:04:54;101982.31;;;4.59;100.00
19676;BME280;39539;52.202;9.876;2024-01-30T01:07:19;101984.53;;;4.54;100.00
19676;BME280;39539;52.202;9.876;2024-01-30T01:09:44;101986.75;;;4.59;100.00
19676;BME280;39539;52.202;9.876;2024-01-30T01:12:10;101996.19;;;4.71;100.00
19676;BME280;39539;52.202;9.876;2024-01-30T01:14:35;101993.84;;;4.78;100.00
19676;BME280;39539;52.202;9.876;2024-01-30T01:17:01;101992.06;;;4.88;100.00
19676;BME280;39539;52.202;9.876;2024-01-30T01:19:26;101997.75;;;5.03;100.00
19676;BME280;39539;52.202;9.876;2024-01-30T01:21:52;101979.19;;;4.94;100.00
19676;BME280;39539;52.202;9.876;2024-01-30T01:24:18;101995.81;;;5.14;100.00
19676;BME280;39539;52.202;9.876;2024-01-30T01:26:43;101993.78;;;5.18;100.00
19676;BME280;39539;52.202;9.876;2024-01-30T01:29:09;101993.06;;;5.16;100.00
19676;BME280;39539;52.202;9.876;2024-01-30T01:31:37;101976.13;;;5.09;100.00
19676;BME280;39539;52.202;9.876;2024-01-30T01:34:09;101981.53;;;5.17;100.00
19676;BME280;39539;52.202;9.876;2024-01-30T01:36:34;101962.41;;;5.15;100.00
19676;BME280;39539;52.202;9.876;2024-01-30T01:39:00;101982.66;;;5.24;100.00
19676;BME280;39539;52.202;9.876;2024-01-30T01:41:30;101983.47;;;5.15;100.00
19676;BME280;39539;52.202;9.876;2024-01-30T01:43:55;101982.81;;;5.13;100.00
19676;BME280;39539;52.202;9.876;2024-01-30T01:46:20;101986.94;;;5.06;100.00
19676;BME280;39539;52.202;9.876;2024-01-30T01:48:46;101965.69;;;4.78;100.00
19676;BME280;39539;52.202;9.876;2024-01-30T01:51:12;101966.81;;;4.66;100.00
19676;BME280;39539;52.202;9.876;2024-01-30T01:53:38;101962.91;;;4.60;100.00
19676;BME280;39539;52.202;9.876;2024-01-30T01:56:04;101974.56;;;4.67;100.00
19676;BME280;39539;52.202;9.876;2024-01-30T01:58:30;101969.81;;;4.61;100.00
19676;BME280;39539;52.202;9.876;2024-01-30T02:00:56;101961.66;;;4.55;100.00
19676;BME280;39539;52.202;9.876;2024-01-30T02:03:22;101968.06;;;4.62;100.00
19676;BME280;39539;52.202;9.876;2024-01-30T02:05:47;101964.56;;;4.61;100.00
19676;BME280;39539;52.202;9.876;2024-01-30T02:08:12;101966.53;;;4.59;100.00
19676;BME280;39539;52.202;9.876;2024-01-30T02:10:38;101968.31;;;4.59;100.00
19676;BME280;39539;52.202;9.876;2024-01-30T02:13:03;101971.19;;;4.56;100.00
19676;BME280;39539;52.202;9.876;2024-01-30T02:15:29;101960.53;;;4.47;100.00
19676;BME280;39539;52.202;9.876;2024-01-30T02:17:55;101969.53;;;4.45;100.00
19676;BME280;39539;52.202;9.876;2024-01-30T02:20:21;101958.13;;;4.35;100.00
19676;BME280;39539;52.202;9.876;2024-01-30T02:22:48;101955.06;;;4.30;100.00
19676;BME280;39539;52.202;9.876;2024-01-30T02:25:14;101959.56;;;4.39;100.00
19676;BME280;39539;52.202;9.876;2024-01-30T02:27:39;101958.00;;;4.36;100.00
19676;BME280;39539;52.202;9.876;2024-01-30T02:30:05;101949.53;;;4.33;100.00
19676;BME280;39539;52.202;9.876;2024-01-30T02:32:30;101955.38;;;4.36;100.00
19676;BME280;39539;52.202;9.876;2024-01-30T02:34:56;101942.91;;;4.38;100.00
19676;BME280;39539;52.202;9.876;2024-01-30T02:37:21;101943.34;;;4.43;100.00
19676;BME280;39539;52.202;9.876;2024-01-30T02:39:46;101935.72;;;4.50;100.00
19676;BME280;39539;52.202;9.876;2024-01-30T02:42:11;101943.50;;;4.61;100.00
19676;BME280;39539;52.202;9.876;2024-01-30T02:44:37;101924.38;;;4.59;100.00
19676;BME280;39539;52.202;9.876;2024-01-30T02:47:02;101942.84;;;4.79;100.00
19676;BME280;39539;52.202;9.876;2024-01-30T02:49:27;101927.88;;;4.79;100.00
19676;BME280;39539;52.202;9.876;2024-01-30T02:51:53;101943.13;;;4.85;100.00
19676;BME280;39539;52.202;9.876;2024-01-30T02:54:19;101924.97;;;4.82;100.00
19676;BME280;39539;52.202;9.876;2024-01-30T02:56:44;101919.66;;;4.72;100.00
19676;BME280;39539;52.202;9.876;2024-01-30T02:59:09;101933.84;;;4.91;100.00
19676;BME280;39539;52.202;9.876;2024-01-30T03:01:45;101932.72;;;4.93;100.00
19676;BME280;39539;52.202;9.876;2024-01-30T03:04:11;101910.25;;;4.89;100.00
19676;BME280;39539;52.202;9.876;2024-01-30T03:06:36;101931.34;;;5.09;100.00
19676;BME280;39539;52.202;9.876;2024-01-30T03:09:02;101923.31;;;5.10;100.00
19676;BME280;39539;52.202;9.876;2024-01-30T03:11:28;101929.13;;;5.14;100.00
19676;BME280;39539;52.202;9.876;2024-01-30T03:13:53;101925.34;;;5.26;100.00
19676;BME280;39539;52.202;9.876;2024-01-30T03:16:18;101901.50;;;5.28;100.00
19676;BME280;39539;52.202;9.876;2024-01-30T03:18:44;101920.34;;;5.43;100.00
19676;BME280;39539;52.202;9.876;2024-01-30T03:21:09;101923.50;;;5.56;100.00
19676;BME280;39539;52.202;9.876;2024-01-30T03:23:34;101915.00;;;5.62;100.00
19676;BME280;39539;52.202;9.876;2024-01-30T03:26:00;101915.00;;;5.62;100.00
19676;BME280;39539;52.202;9.876;2024-01-30T03:28:25;101913.38;;;5.61;100.00
19676;BME280;39539;52.202;9.876;2024-01-30T03:30:51;101908.78;;;5.53;100.00
19676;BME280;39539;52.202;9.876;2024-01-30T03:33:16;101901.59;;;5.46;100.00
19676;BME280;39539;52.202;9.876;2024-01-30T03:35:42;101907.44;;;5.39;100.00
19676;BME280;39539;52.202;9.876;2024-01-30T03:38:08;101892.75;;;5.27;100.00
19676;BME280;39539;52.202;9.876;2024-01-30T03:40:33;101893.31;;;5.31;100.00
19676;BME280;39539;52.202;9.876;2024-01-30T03:42:58;101907.56;;;5.48;100.00
19676;BME280;39539;52.202;9.876;2024-01-30T03:45:23;101903.13;;;5.48;100.00
19676;BME280;39539;52.202;9.876;2024-01-30T03:47:49;101906.69;;;5.57;100.00
19676;BME280;39539;52.202;9.876;2024-01-30T03:50:14;101905.44;;;5.61;100.00
19676;BME280;39539;52.202;9.876;2024-01-30T03:52:39;101912.91;;;5.75;100.00
19676;BME280;39539;52.202;9.876;2024-01-30T03:55:05;101904.81;;;5.77;100.00
19676;BME280;39539;52.202;9.876;2024-01-30T03:57:30;101898.59;;;5.78;100.00
19676;BME280;39539;52.202;9.876;2024-01-30T03:59:56;101900.38;;;5.77;100.00
19676;BME280;39539;52.202;9.876;2024-01-30T04:02:21;101891.78;;;5.75;100.00
19676;BME280;39539;52.202;9.876;2024-01-30T04:04:46;101885.00;;;5.63;100.00
19676;BME280;39539;52.202;9.876;2024-01-30T04:07:11;101896.66;;;5.70;100.00
19676;BME280;39539;52.202;9.876;2024-01-30T04:09:38;101895.84;;;5.70;100.00
19676;BME280;39539;52.202;9.876;2024-01-30T04:12:05;101886.13;;;5.70;100.00
19676;BME280;39539;52.202;9.876;2024-01-30T04:14:30;101863.13;;;5.53;100.00
19676;BME280;39539;52.202;9.876;2024-01-30T04:16:55;101884.16;;;5.72;100.00
19676;BME280;39539;52.202;9.876;2024-01-30T04:19:21;101876.25;;;5.72;100.00
19676;BME280;39539;52.202;9.876;2024-01-30T04:21:46;101878.91;;;5.72;100.00
19676;BME280;39539;52.202;9.876;2024-01-30T04:24:11;101881.13;;;5.67;100.00
19676;BME280;39539;52.202;9.876;2024-01-30T04:26:37;101877.97;;;5.63;100.00
19676;BME280;39539;52.202;9.876;2024-01-30T04:29:02;101893.22;;;5.60;100.00
19676;BME280;39539;52.202;9.876;2024-01-30T04:31:28;101883.81;;;5.48;100.00
19676;BME280;39539;52.202;9.876;2024-01-30T04:33:53;101891.50;;;5.41;100.00
19676;BME280;39539;52.202;9.876;2024-01-30T04:36:18;101877.22;;;5.24;100.00
19676;BME280;39539;52.202;9.876;2024-01-30T04:38:44;101890.78;;;5.29;100.00
19676;BME280;39539;52.202;9.876;2024-01-30T04:41:10;101885.97;;;5.15;100.00
19676;BME280;39539;52.202;9.876;2024-01-30T04:43:35;101884.63;;;5.01;100.00
19676;BME280;39539;52.202;9.876;2024-01-30T04:46:01;101881.41;;;4.98;100.00
19676;BME280;39539;52.202;9.876;2024-01-30T04:48:27;101891.00;;;4.99;100.00
19676;BME280;39539;52.202;9.876;2024-01-30T04:50:52;101889.47;;;4.96;100.00
19676;BME280;39539;52.202;9.876;2024-01-30T04:53:17;101887.78;;;4.95;100.00
19676;BME280;39539;52.202;9.876;2024-01-30T04:55:43;101899.19;;;4.95;100.00
19676;BME280;39539;52.202;9.876;2024-01-30T04:58:09;101894.59;;;4.98;100.00
19676;BME280;39539;52.202;9.876;2024-01-30T05:00:35;101896.66;;;5.04;100.00
19676;BME280;39539;52.202;9.876;2024-01-30T05:03:00;101901.09;;;5.03;100.00
19676;BME280;39539;52.202;9.876;2024-01-30T05:05:26;101880.59;;;4.97;100.00
19676;BME280;39539;52.202;9.876;2024-01-30T05:07:51;101899.28;;;5.04;100.00
19676;BME280;39539;52.202;9.876;2024-01-30T05:10:16;101902.22;;;5.01;100.00
19676;BME280;39539;52.202;9.876;2024-01-30T05:12:42;101886.25;;;4.92;100.00
19676;BME280;39539;52.202;9.876;2024-01-30T05:15:07;101900.16;;;5.04;100.00
19676;BME280;39539;52.202;9.876;2024-01-30T05:17:33;101904.31;;;5.07;100.00
19676;BME280;39539;52.202;9.876;2024-01-30T05:19:58;101895.72;;;5.05;100.00
19676;BME280;39539;52.202;9.876;2024-01-30T05:22:23;101896.53;;;5.05;100.00
19676;BME280;39539;52.202;9.876;2024-01-30T05:24:49;101887.09;;;5.03;100.00
19676;BME280;39539;52.202;9.876;2024-01-30T05:27:14;101897.06;;;5.09;100.00
19676;BME280;39539;52.202;9.876;2024-01-30T05:29:40;101882.41;;;4.97;100.00
19676;BME280;39539;52.202;9.876;2024-01-30T05:32:06;101885.28;;;5.03;100.00
19676;BME280;39539;52.202;9.876;2024-01-30T05:34:31;101893.91;;;5.05;100.00
19676;BME280;39539;52.202;9.876;2024-01-30T05:36:57;101886.69;;;4.98;100.00
19676;BME280;39539;52.202;9.876;2024-01-30T05:39:22;101898.31;;;4.95;100.00
19676;BME280;39539;52.202;9.876;2024-01-30T05:41:47;101900.28;;;4.83;100.00
19676;BME280;39539;52.202;9.876;2024-01-30T05:44:12;101897.63;;;4.83;100.00
19676;BME280;39539;52.202;9.876;2024-01-30T05:46:38;101899.16;;;4.86;100.00
19676;BME280;39539;52.202;9.876;2024-01-30T05:49:03;101898.34;;;4.85;100.00
19676;BME280;39539;52.202;9.876;2024-01-30T05:51:29;101896.53;;;4.76;100.00
19676;BME280;39539;52.202;9.876;2024-01-30T05:53:54;101888.06;;;4.72;100.00
19676;BME280;39539;52.202;9.876;2024-01-30T05:56:20;101895.97;;;4.72;100.00
19676;BME280;39539;52.202;9.876;2024-01-30T05:58:45;101894.88;;;4.65;100.00
19676;BME280;39539;52.202;9.876;2024-01-30T06:01:10;101881.97;;;4.53;100.00
19676;BME280;39539;52.202;9.876;2024-01-30T06:03:36;101897.91;;;4.61;100.00
19676;BME280;39539;52.202;9.876;2024-01-30T06:06:02;101901.66;;;4.68;100.00
19676;BME280;39539;52.202;9.876;2024-01-30T06:08:27;101886.97;;;4.65;100.00
19676;BME280;39539;52.202;9.876;2024-01-30T06:10:53;101902.78;;;4.94;100.00
19676;BME280;39539;52.202;9.876;2024-01-30T06:13:18;101903.44;;;5.06;100.00
19676;BME280;39539;52.202;9.876;2024-01-30T06:15:43;101884.19;;;5.06;100.00
19676;BME280;39539;52.202;9.876;2024-01-30T06:18:09;101905.53;;;5.22;100.00
19676;BME280;39539;52.202;9.876;2024-01-30T06:20:34;101901.25;;;5.21;100.00
19676;BME280;39539;52.202;9.876;2024-01-30T06:22:59;101884.19;;;5.15;100.00
19676;BME280;39539;52.202;9.876;2024-01-30T06:25:25;101911.88;;;5.29;100.00
19676;BME280;39539;52.202;9.876;2024-01-30T06:27:50;101908.03;;;5.24;100.00
19676;BME280;39539;52.202;9.876;2024-01-30T06:30:15;101867.13;;;5.00;100.00
19676;BME280;39539;52.202;9.876;2024-01-30T06:32:41;101893.19;;;5.13;100.00
19676;BME280;39539;52.202;9.876;2024-01-30T06:35:06;101887.50;;;5.08;100.00
19676;BME280;39539;52.202;9.876;2024-01-30T06:37:32;101864.53;;;4.90;100.00
19676;BME280;39539;52.202;9.876;2024-01-30T06:39:57;101882.13;;;5.00;100.00
19676;BME280;39539;52.202;9.876;2024-01-30T06:42:22;101892.09;;;5.06;100.00
19676;BME280;39539;52.202;9.876;2024-01-30T06:44:48;101867.81;;;4.92;100.00
19676;BME280;39539;52.202;9.876;2024-01-30T06:47:13;101880.84;;;5.04;100.00
19676;BME280;39539;52.202;9.876;2024-01-30T06:49:38;101876.28;;;5.06;100.00
19676;BME280;39539;52.202;9.876;2024-01-30T06:52:07;101878.06;;;5.15;100.00
19676;BME280;39539;52.202;9.876;2024-01-30T06:54:32;101861.56;;;5.03;100.00
19676;BME280;39539;52.202;9.876;2024-01-30T06:56:58;101872.81;;;5.05;100.00
19676;BME280;39539;52.202;9.876;2024-01-30T06:59:24;101872.56;;;4.99;100.00
19676;BME280;39539;52.202;9.876;2024-01-30T07:01:49;101868.53;;;4.94;100.00
19676;BME280;39539;52.202;9.876;2024-01-30T07:04:14;101878.09;;;4.95;100.00
19676;BME280;39539;52.202;9.876;2024-01-30T07:06:39;101864.50;;;4.81;100.00
19676;BME280;39539;52.202;9.876;2024-01-30T07:09:05;101867.00;;;4.82;100.00
19676;BME280;39539;52.202;9.876;2024-01-30T07:11:30;101851.78;;;4.76;100.00
19676;BME280;39539;52.202;9.876;2024-01-30T07:13:56;101877.53;;;5.02;100.00
19676;BME280;39539;52.202;9.876;2024-01-30T07:16:21;101880.31;;;5.00;100.00
19676;BME280;39539;52.202;9.876;2024-01-30T07:18:47;101874.22;;;5.00;100.00
19676;BME280;39539;52.202;9.876;2024-01-30T07:21:13;101880.84;;;5.04;100.00
19676;BME280;39539;52.202;9.876;2024-01-30T07:23:38;101881.13;;;5.01;100.00
19676;BME280;39539;52.202;9.876;2024-01-30T07:26:07;101880.84;;;5.04;100.00
19676;BME280;39539;52.202;9.876;2024-01-30T07:28:33;101878.09;;;5.05;100.00
19676;BME280;39539;52.202;9.876;2024-01-30T07:30:59;101872.00;;;5.05;100.00
19676;BME280;39539;52.202;9.876;2024-01-30T07:33:25;101879.88;;;5.24;100.00
19676;BME280;39539;52.202;9.876;2024-01-30T07:35:52;101895.81;;;5.32;100.00
19676;BME280;39539;52.202;9.876;2024-01-30T07:38:19;101884.13;;;5.35;100.00
19676;BME280;39539;52.202;9.876;2024-01-30T07:40:45;101860.56;;;5.33;100.00
19676;BME280;39539;52.202;9.876;2024-01-30T07:43:10;101883.78;;;5.57;100.00
19676;BME280;39539;52.202;9.876;2024-01-30T07:45:36;101880.31;;;5.57;100.00
19676;BME280;39539;52.202;9.876;2024-01-30T07:48:02;101877.41;;;5.60;100.00
19676;BME280;39539;52.202;9.876;2024-01-30T07:50:28;101879.75;;;5.63;100.00
19676;BME280;39539;52.202;9.876;2024-01-30T07:52:55;101885.88;;;5.63;100.00
19676;BME280;39539;52.202;9.876;2024-01-30T07:55:20;101866.72;;;5.52;100.00
19676;BME280;39539;52.202;9.876;2024-01-30T07:57:51;101878.63;;;5.66;100.00
19676;BME280;39539;52.202;9.876;2024-01-30T08:00:17;101878.34;;;5.69;100.00
19676;BME280;39539;52.202;9.876;2024-01-30T08:02:42;101870.19;;;5.62;100.00
19676;BME280;39539;52.202;9.876;2024-01-30T08:05:07;101871.63;;;5.47;100.00
19676;BME280;39539;52.202;9.876;2024-01-30T08:07:34;101861.38;;;5.44;100.00
19676;BME280;39539;52.202;9.876;2024-01-30T08:10:00;101873.84;;;5.42;100.00
19676;BME280;39539;52.202;9.876;2024-01-30T08:12:25;101871.06;;;5.53;100.00
19676;BME280;39539;52.202;9.876;2024-01-30T08:14:50;101880.53;;;5.73;100.00
19676;BME280;39539;52.202;9.876;2024-01-30T08:17:15;101877.03;;;5.82;100.00
19676;BME280;39539;52.202;9.876;2024-01-30T08:19:41;101872.97;;;5.98;100.00
19676;BME280;39539;52.202;9.876;2024-01-30T08:22:06;101872.03;;;6.17;100.00
19676;BME280;39539;52.202;9.876;2024-01-30T08:24:31;101850.78;;;6.18;100.00
19676;BME280;39539;52.202;9.876;2024-01-30T08:26:57;101866.19;;;6.41;100.00
19676;BME280;39539;52.202;9.876;2024-01-30T08:29:23;101873.97;;;6.60;100.00
19676;BME280;39539;52.202;9.876;2024-01-30T08:31:48;101857.91;;;6.71;100.00
19676;BME280;39539;52.202;9.876;2024-01-30T08:34:13;101870.31;;;6.97;100.00
19676;BME280;39539;52.202;9.876;2024-01-30T08:36:39;101867.50;;;7.16;100.00
19676;BME280;39539;52.202;9.876;2024-01-30T08:39:04;101847.06;;;7.27;100.00
19676;BME280;39539;52.202;9.876;2024-01-30T08:41:31;101853.78;;;7.47;100.00
19676;BME280;39539;52.202;9.876;2024-01-30T08:43:57;101853.88;;;7.63;100.00
19676;BME280;39539;52.202;9.876;2024-01-30T08:46:22;101865.22;;;7.82;100.00
19676;BME280;39539;52.202;9.876;2024-01-30T08:48:48;101857.31;;;7.90;99.04
19676;BME280;39539;52.202;9.876;2024-01-30T08:51:13;101864.31;;;8.07;98.28
19676;BME280;39539;52.202;9.876;2024-01-30T08:53:40;101855.25;;;8.18;97.02
19676;BME280;39539;52.202;9.876;2024-01-30T08:56:06;101853.09;;;8.22;96.37
19676;BME280;39539;52.202;9.876;2024-01-30T08:58:32;101860.13;;;8.39;95.42
19676;BME280;39539;52.202;9.876;2024-01-30T09:00:57;101844.25;;;8.47;94.50
19676;BME280;39539;52.202;9.876;2024-01-30T09:03:22;101850.19;;;8.58;93.99
19676;BME280;39539;52.202;9.876;2024-01-30T09:05:47;101858.69;;;8.69;93.56
19676;BME280;39539;52.202;9.876;2024-01-30T09:08:13;101856.69;;;8.55;94.44
19676;BME280;39539;52.202;9.876;2024-01-30T09:10:38;101862.81;;;8.72;95.58
19676;BME280;39539;52.202;9.876;2024-01-30T09:13:04;101844.44;;;8.79;95.60
19676;BME280;39539;52.202;9.876;2024-01-30T09:15:29;101847.75;;;8.81;94.60
19676;BME280;39539;52.202;9.876;2024-01-30T09:17:54;101846.22;;;9.03;93.66
19676;BME280;39539;52.202;9.876;2024-01-30T09:20:20;101831.97;;;9.04;92.72
19676;BME280;39539;52.202;9.876;2024-01-30T09:22:47;101825.34;;;8.99;91.69
19676;BME280;39539;52.202;9.876;2024-01-30T09:25:12;101835.44;;;9.29;91.95
19676;BME280;39539;52.202;9.876;2024-01-30T09:27:38;101819.97;;;9.40;90.99
19676;BME280;39539;52.202;9.876;2024-01-30T09:30:03;101831.03;;;9.52;89.44
19676;BME280;39539;52.202;9.876;2024-01-30T09:32:29;101833.78;;;9.67;88.80
19676;BME280;39539;52.202;9.876;2024-01-30T09:34:54;101819.50;;;9.68;88.15
19676;BME280;39539;52.202;9.876;2024-01-30T09:37:20;101820.00;;;9.80;87.90
19676;BME280;39539;52.202;9.876;2024-01-30T09:39:45;101825.03;;;9.98;86.40
19676;BME280;39539;52.202;9.876;2024-01-30T09:44:51;101821.06;;;10.25;85.44
19676;BME280;39539;52.202;9.876;2024-01-30T09:47:17;101811.59;;;10.30;84.00
19676;BME280;39539;52.202;9.876;2024-01-30T09:49:43;101808.63;;;10.48;82.63
19676;BME280;39539;52.202;9.876;2024-01-30T09:52:09;101805.03;;;10.41;81.45
19676;BME280;39539;52.202;9.876;2024-01-30T09:54:34;101807.63;;;10.49;82.78
19676;BME280;39539;52.202;9.876;2024-01-30T09:57:01;101798.81;;;10.49;81.48
19676;BME280;39539;52.202;9.876;2024-01-30T09:59:26;101807.81;;;10.48;82.62
19676;BME280;39539;52.202;9.876;2024-01-30T10:01:51;101790.75;;;10.42;82.50
19676;BME280;39539;52.202;9.876;2024-01-30T10:04:17;101805.69;;;10.43;82.72
19676;BME280;39539;52.202;9.876;2024-01-30T10:06:42;101806.06;;;10.55;83.32
19676;BME280;39539;52.202;9.876;2024-01-30T10:09:08;101789.69;;;10.66;81.53
19676;BME280;39539;52.202;9.876;2024-01-30T10:11:35;101818.34;;;10.79;80.77
19676;BME280;39539;52.202;9.876;2024-01-30T10:14:01;101808.84;;;10.85;81.01
19676;BME280;39539;52.202;9.876;2024-01-30T10:16:26;101818.44;;;10.86;81.02
19676;BME280;39539;52.202;9.876;2024-01-30T10:18:51;101814.63;;;11.03;81.75
19676;BME280;39539;52.202;9.876;2024-01-30T10:21:16;101813.28;;;11.07;79.65
19676;BME280;39539;52.202;9.876;2024-01-30T10:23:43;101800.78;;;10.93;80.31
19676;BME280;39539;52.202;9.876;2024-01-30T10:26:09;101802.44;;;11.09;81.43
19676;BME280;39539;52.202;9.876;2024-01-30T10:28:35;101785.34;;;10.73;83.79
19676;BME280;39539;52.202;9.876;2024-01-30T10:31:00;101789.41;;;10.84;83.17
19676;BME280;39539;52.202;9.876;2024-01-30T10:33:26;101782.59;;;10.82;84.56
19676;BME280;39539;52.202;9.876;2024-01-30T10:35:55;101784.31;;;10.74;83.34
19676;BME280;39539;52.202;9.876;2024-01-30T10:38:28;101778.19;;;10.89;82.94
19676;BME280;39539;52.202;9.876;2024-01-30T10:40:56;101776.41;;;11.04;80.92
19676;BME280;39539;52.202;9.876;2024-01-30T10:43:22;101759.41;;;11.05;80.80
19676;BME280;39539;52.202;9.876;2024-01-30T10:45:53;101761.41;;;11.03;81.76
19676;BME280;39539;52.202;9.876;2024-01-30T10:48:20;101754.00;;;10.98;82.42
19676;BME280;39539;52.202;9.876;2024-01-30T10:50:50;101760.31;;;11.12;81.20
19676;BME280;39539;52.202;9.876;2024-01-30T10:53:17;101753.53;;;10.95;82.84
19676;BME280;39539;52.202;9.876;2024-01-30T10:55:44;101746.84;;;10.99;81.22
19676;BME280;39539;52.202;9.876;2024-01-30T10:58:12;101751.16;;;11.00;81.93
19676;BME280;39539;52.202;9.876;2024-01-30T11:00:38;101744.72;;;10.79;82.57
19676;BME280;39539;52.202;9.876;2024-01-30T11:03:04;101737.25;;;10.60;83.33
19676;BME280;39539;52.202;9.876;2024-01-30T11:05:30;101751.66;;;10.66;82.83
19676;BME280;39539;52.202;9.876;2024-01-30T11:07:55;101738.19;;;10.67;83.52
19676;BME280;39539;52.202;9.876;2024-01-30T11:10:21;101745.44;;;10.73;83.36
19676;BME280;39539;52.202;9.876;2024-01-30T11:12:49;101739.59;;;10.93;83.19
19676;BME280;39539;52.202;9.876;2024-01-30T11:15:16;101734.00;;;11.02;81.98
19676;BME280;39539;52.202;9.876;2024-01-30T11:20:11;101737.09;;;11.06;82.87
19676;BME280;39539;52.202;9.876;2024-01-30T11:22:37;101746.63;;;10.86;85.35
19676;BME280;39539;52.202;9.876;2024-01-30T11:25:02;101742.72;;;10.82;84.83
19676;BME280;39539;52.202;9.876;2024-01-30T11:27:30;101746.72;;;10.92;85.19
19676;BME280;39539;52.202;9.876;2024-01-30T11:30:01;101722.63;;;10.94;84.63
19676;BME280;39539;52.202;9.876;2024-01-30T11:32:27;101726.91;;;10.65;86.10
19676;BME280;39539;52.202;9.876;2024-01-30T11:34:53;101727.34;;;10.69;87.08
19676;BME280;39539;52.202;9.876;2024-01-30T11:37:21;101734.44;;;10.76;88.68
19676;BME280;39539;52.202;9.876;2024-01-30T11:39:50;101723.16;;;10.89;86.48
19676;BME280;39539;52.202;9.876;2024-01-30T11:42:16;101734.38;;;10.85;86.64
19676;BME280;39539;52.202;9.876;2024-01-30T11:44:46;101720.56;;;10.81;86.10
19676;BME280;39539;52.202;9.876;2024-01-30T11:47:12;101702.78;;;10.67;86.96
19676;BME280;39539;52.202;9.876;2024-01-30T11:49:37;101727.13;;;10.93;85.28
19676;BME280;39539;52.202;9.876;2024-01-30T11:52:04;101723.34;;;11.02;84.35
19676;BME280;39539;52.202;9.876;2024-01-30T11:54:29;101722.06;;;11.13;82.50
19676;BME280;39539;52.202;9.876;2024-01-30T11:56:55;101710.22;;;11.16;81.12
19676;BME280;39539;52.202;9.876;2024-01-30T11:59:20;101713.53;;;11.33;82.44
19676;BME280;39539;52.202;9.876;2024-01-30T12:01:46;101705.47;;;11.11;83.43
19676;BME280;39539;52.202;9.876;2024-01-30T12:04:12;101709.66;;;11.20;84.39
19676;BME280;39539;52.202;9.876;2024-01-30T12:06:37;101707.31;;;10.96;85.41
19676;BME280;39539;52.202;9.876;2024-01-30T12:09:03;101699.41;;;11.02;85.94
19676;BME280;39539;52.202;9.876;2024-01-30T12:11:29;101685.28;;;11.02;85.56
19676;BME280;39539;52.202;9.876;2024-01-30T12:13:55;101686.03;;;10.96;84.33
19676;BME280;39539;52.202;9.876;2024-01-30T12:16:21;101674.63;;;10.72;85.14
19676;BME280;39539;52.202;9.876;2024-01-30T12:18:48;101680.44;;;10.76;87.16
19676;BME280;39539;52.202;9.876;2024-01-30T12:21:16;101674.91;;;10.77;86.58
19676;BME280;39539;52.202;9.876;2024-01-30T12:23:43;101677.66;;;10.69;87.27
19676;BME280;39539;52.202;9.876;2024-01-30T12:26:09;101675.28;;;10.60;88.06
19676;BME280;39539;52.202;9.876;2024-01-30T12:28:35;101678.69;;;10.68;88.85
19676;BME280;39539;52.202;9.876;2024-01-30T12:31:02;101677.19;;;10.81;89.27
19676;BME280;39539;52.202;9.876;2024-01-30T12:33:29;101688.22;;;10.77;90.25
19676;BME280;39539;52.202;9.876;2024-01-30T12:35:55;101677.94;;;10.74;90.89
19676;BME280;39539;52.202;9.876;2024-01-30T12:38:21;101677.28;;;10.57;91.78
19676;BME280;39539;52.202;9.876;2024-01-30T12:40:46;101667.56;;;10.50;92.49
19676;BME280;39539;52.202;9.876;2024-01-30T12:43:13;101682.69;;;10.64;93.57
19676;BME280;39539;52.202;9.876;2024-01-30T12:45:41;101679.41;;;10.62;93.40
19676;BME280;39539;52.202;9.876;2024-01-30T12:48:07;101677.47;;;10.56;92.39